Time;durP1;ratioP1;P1;durP2;ratioP2;P2;SDS_P1;SDS_P2;PMS_P1;PMS_P2;Temp;Humidity;BMP_temperature;BMP_pressure;BME280_temperature;BME280_humidity;BME280_pressure;Samples;Min_cycle;Max_cycle;Signal;HPM_P1;HPM_P2
2024/03/15 00:01:38;;;;;;;8.05;4.28;;;11.30;99.90;;;;;;5029458;28;20018;-83
2024/03/15 00:04:04;;;;;;;8.55;4.68;;;11.30;99.90;;;;;;5030036;28;20387;-82
2024/03/15 00:06:30;;;;;;;8.43;4.43;;;11.30;99.90;;;;;;5012859;28;20032;-82
2024/03/15 00:08:56;;;;;;;7.03;4.43;;;11.30;99.90;;;;;;5028925;28;20025;-82
2024/03/15 00:11:22;;;;;;;9.77;4.07;;;11.30;99.90;;;;;;5007064;28;20622;-81
2024/03/15 00:13:48;;;;;;;7.75;4.57;;;11.30;99.90;;;;;;5031409;28;20100;-81
2024/03/15 00:16:14;;;;;;;7.97;4.07;;;11.30;99.90;;;;;;5009853;28;20022;-82
2024/03/15 00:18:40;;;;;;;9.65;4.35;;;11.30;99.90;;;;;;5011933;28;20021;-81
2024/03/15 00:21:06;;;;;;;8.13;4.40;;;11.30;99.90;;;;;;5031254;28;20022;-82
2024/03/15 00:23:32;;;;;;;5.88;3.88;;;11.30;99.90;;;;;;5009942;28;20022;-82
2024/03/15 00:26:01;;;;;;;10.27;4.40;;;11.30;99.90;;;;;;5011366;28;20021;-81
2024/03/15 00:28:27;;;;;;;11.40;5.03;;;11.30;99.90;;;;;;5030875;28;20025;-81
2024/03/15 00:30:53;;;;;;;7.63;4.07;;;11.30;99.90;;;;;;5024755;28;20395;-81
2024/03/15 00:33:18;;;;;;;9.60;4.35;;;11.20;99.90;;;;;;5011397;28;20014;-82
2024/03/15 00:35:44;;;;;;;6.90;3.80;;;11.30;99.90;;;;;;5008394;28;20495;-81
2024/03/15 00:38:09;;;;;;;8.13;3.90;;;11.20;99.90;;;;;;5026870;28;20286;-82
2024/03/15 00:40:35;;;;;;;7.07;3.67;;;11.30;99.90;;;;;;5029452;28;20018;-81
2024/03/15 00:43:01;;;;;;;8.20;4.13;;;11.30;99.90;;;;;;5013057;28;20105;-83
2024/03/15 00:45:26;;;;;;;8.25;3.63;;;11.30;99.90;;;;;;5028035;28;20030;-82
2024/03/15 00:47:52;;;;;;;5.93;4.40;;;11.30;99.90;;;;;;5008979;28;20021;-83
2024/03/15 00:50:17;;;;;;;9.27;3.80;;;11.30;99.90;;;;;;5012120;28;20021;-81
2024/03/15 00:52:43;;;;;;;5.43;3.85;;;11.20;99.90;;;;;;5012316;28;20586;-83
2024/03/15 00:55:09;;;;;;;9.27;4.32;;;11.20;99.90;;;;;;5025835;28;20475;-82
2024/03/15 00:57:35;;;;;;;11.88;4.63;;;11.20;99.90;;;;;;5010454;28;20025;-81
2024/03/15 01:00:02;;;;;;;6.15;4.00;;;11.20;99.90;;;;;;5028267;28;20056;-82
2024/03/15 01:02:27;;;;;;;7.18;4.05;;;11.20;99.90;;;;;;5010545;28;20026;-83
2024/03/15 01:04:53;;;;;;;6.05;3.90;;;11.20;99.90;;;;;;5010265;28;20386;-81
2024/03/15 01:07:20;;;;;;;9.23;4.10;;;11.30;99.90;;;;;;5007841;28;20037;-82
2024/03/15 01:09:45;;;;;;;8.48;4.50;;;11.20;99.90;;;;;;5026558;28;20067;-81
2024/03/15 01:12:12;;;;;;;8.52;4.43;;;11.30;99.90;;;;;;5010214;28;20026;-81
2024/03/15 01:14:37;;;;;;;9.07;4.13;;;11.30;99.90;;;;;;5012244;28;20025;-83
2024/03/15 01:17:03;;;;;;;8.30;4.05;;;11.20;99.90;;;;;;5007268;28;20437;-82
2024/03/15 01:19:32;;;;;;;9.10;4.18;;;11.20;99.90;;;;;;5007161;28;20387;-81
2024/03/15 01:21:57;;;;;;;7.05;3.90;;;11.30;99.90;;;;;;5012071;28;20056;-81
2024/03/15 01:24:23;;;;;;;5.72;4.07;;;11.20;99.90;;;;;;5027794;28;20112;-81
2024/03/15 01:26:49;;;;;;;6.15;4.10;;;11.20;99.90;;;;;;5022567;28;20017;-83
2024/03/15 01:29:14;;;;;;;9.52;3.80;;;11.20;99.90;;;;;;5011352;28;20041;-82
2024/03/15 01:31:40;;;;;;;7.45;3.92;;;11.20;99.90;;;;;;5012028;28;20518;-82
2024/03/15 01:34:05;;;;;;;9.23;3.83;;;11.20;99.90;;;;;;5008347;28;20499;-83
2024/03/15 01:36:31;;;;;;;9.43;4.15;;;11.20;99.90;;;;;;5011651;28;20037;-81
2024/03/15 01:38:57;;;;;;;11.20;4.18;;;11.20;99.90;;;;;;5028637;28;20025;-82
2024/03/15 01:41:22;;;;;;;8.77;4.05;;;11.20;99.90;;;;;;5007310;28;20037;-82
2024/03/15 01:43:48;;;;;;;9.02;4.57;;;11.20;99.90;;;;;;5009942;28;20557;-83
2024/03/15 01:46:14;;;;;;;14.25;4.10;;;11.20;99.90;;;;;;5004894;28;20009;-81
2024/03/15 01:48:40;;;;;;;8.20;3.53;;;11.20;99.90;;;;;;5008478;28;20399;-82
2024/03/15 01:51:06;;;;;;;6.10;3.30;;;11.20;99.90;;;;;;5009840;28;20104;-83
2024/03/15 01:53:32;;;;;;;6.72;4.43;;;11.20;99.90;;;;;;5007107;28;20455;-84
2024/03/15 01:55:59;;;;;;;9.35;4.75;;;11.20;99.90;;;;;;5026447;28;20053;-81
2024/03/15 01:58:25;;;;;;;7.82;3.85;;;11.20;99.90;;;;;;5008736;28;20025;-81
2024/03/15 02:00:50;;;;;;;7.65;4.10;;;11.20;99.90;;;;;;5008057;28;20499;-81
2024/03/15 02:03:16;;;;;;;9.70;5.15;;;11.20;99.90;;;;;;5027689;28;20022;-81
2024/03/15 02:05:43;;;;;;;6.07;4.22;;;11.20;99.90;;;;;;5009822;28;20133;-82
2024/03/15 02:08:08;;;;;;;9.05;4.40;;;11.20;99.90;;;;;;5027486;28;20021;-83
2024/03/15 02:10:34;;;;;;;13.15;4.53;;;11.20;99.90;;;;;;5006535;28;20384;-81
2024/03/15 02:13:01;;;;;;;7.30;4.60;;;11.20;99.90;;;;;;5011248;28;20030;-82
2024/03/15 02:15:27;;;;;;;6.75;4.15;;;11.20;99.90;;;;;;5004127;28;20101;-81
2024/03/15 02:17:54;;;;;;;8.10;3.97;;;11.20;99.90;;;;;;5008479;28;20113;-83
2024/03/15 02:20:23;;;;;;;8.07;4.22;;;11.20;99.90;;;;;;5026493;28;20073;-82
2024/03/15 02:22:48;;;;;;;8.18;4.13;;;11.10;99.90;;;;;;5009258;28;20021;-82
2024/03/15 02:25:14;;;;;;;9.13;5.00;;;11.20;99.90;;;;;;5008972;28;20476;-81
2024/03/15 02:27:39;;;;;;;7.35;4.28;;;11.20;99.90;;;;;;5023572;28;20445;-81
2024/03/15 02:30:06;;;;;;;13.73;4.88;;;11.20;99.90;;;;;;5026022;28;20079;-82
2024/03/15 02:32:32;;;;;;;8.55;4.85;;;11.20;99.90;;;;;;5028815;28;20107;-83
2024/03/15 02:34:58;;;;;;;6.47;3.95;;;11.20;99.90;;;;;;5015241;28;20053;-82
2024/03/15 02:37:24;;;;;;;8.32;4.13;;;11.20;99.90;;;;;;5030242;28;20080;-82
2024/03/15 02:39:51;;;;;;;7.40;4.35;;;11.20;99.90;;;;;;5031632;28;20072;-82
2024/03/15 02:42:17;;;;;;;12.23;4.88;;;11.20;99.90;;;;;;5013732;28;20021;-82
2024/03/15 02:44:43;;;;;;;8.10;4.93;;;11.20;99.90;;;;;;5031530;28;20026;-82
2024/03/15 02:47:09;;;;;;;8.55;5.07;;;11.20;99.90;;;;;;5011112;28;20025;-83
2024/03/15 02:49:36;;;;;;;8.98;5.32;;;11.20;99.90;;;;;;5033406;28;20075;-83
2024/03/15 02:52:02;;;;;;;7.85;4.53;;;11.20;99.90;;;;;;5012588;28;20060;-82
2024/03/15 02:54:28;;;;;;;10.95;4.65;;;11.20;99.90;;;;;;5014984;28;20022;-81
2024/03/15 02:56:54;;;;;;;10.23;5.28;;;11.20;99.90;;;;;;5026345;28;20475;-82
2024/03/15 02:59:20;;;;;;;10.50;4.85;;;11.20;99.90;;;;;;5030496;28;20602;-82
2024/03/15 03:01:46;;;;;;;8.40;4.45;;;11.20;99.90;;;;;;5011390;28;20013;-81
2024/03/15 03:04:14;;;;;;;9.55;5.07;;;11.20;99.90;;;;;;5015299;28;20017;-83
2024/03/15 03:06:42;;;;;;;12.20;5.25;;;11.20;99.90;;;;;;5031092;28;20072;-82
2024/03/15 03:09:09;;;;;;;11.35;5.88;;;11.20;99.90;;;;;;5031134;28;20032;-83
2024/03/15 03:11:36;;;;;;;11.93;4.43;;;11.10;99.90;;;;;;5031842;28;20026;-82
2024/03/15 03:14:04;;;;;;;9.32;5.25;;;11.20;99.90;;;;;;5026929;28;20014;-82
2024/03/15 03:16:33;;;;;;;8.82;5.30;;;11.20;99.90;;;;;;5013490;28;20057;-82
2024/03/15 03:19:00;;;;;;;11.07;5.03;;;11.10;99.90;;;;;;5034481;28;20029;-81
2024/03/15 03:21:26;;;;;;;10.65;6.10;;;11.20;99.90;;;;;;5031828;28;20014;-81
2024/03/15 03:23:56;;;;;;;12.05;5.93;;;11.20;99.90;;;;;;5030364;28;20075;-82
2024/03/15 03:26:25;;;;;;;11.40;6.20;;;11.10;99.90;;;;;;5011280;28;20121;-82
2024/03/15 03:28:50;;;;;;;12.25;5.85;;;11.20;99.90;;;;;;5014750;28;20326;-81
2024/03/15 03:31:16;;;;;;;12.05;6.20;;;11.10;99.90;;;;;;5006758;28;20535;-82
2024/03/15 03:33:42;;;;;;;9.43;5.55;;;11.20;99.90;;;;;;5007109;28;20565;-82
2024/03/15 03:36:07;;;;;;;9.80;5.43;;;11.10;99.90;;;;;;5013899;28;20442;-81
2024/03/15 03:38:33;;;;;;;13.35;5.50;;;11.10;99.90;;;;;;5012039;28;20392;-82
2024/03/15 03:40:59;;;;;;;9.10;5.50;;;11.20;99.90;;;;;;5032021;28;20033;-82
2024/03/15 03:43:24;;;;;;;12.07;5.60;;;11.10;99.90;;;;;;5013973;28;20418;-81
2024/03/15 03:45:50;;;;;;;9.70;5.22;;;11.20;99.90;;;;;;5027644;28;20452;-81
2024/03/15 03:48:16;;;;;;;9.20;5.07;;;11.10;99.90;;;;;;5030491;28;20025;-81
2024/03/15 03:50:44;;;;;;;11.73;5.88;;;11.10;99.90;;;;;;5031987;28;20352;-82
2024/03/15 03:53:10;;;;;;;9.43;5.32;;;11.10;99.90;;;;;;5013809;28;20379;-83
2024/03/15 03:55:40;;;;;;;13.15;5.97;;;11.10;99.90;;;;;;5030602;28;20017;-82
2024/03/15 03:58:06;;;;;;;10.43;5.78;;;11.10;99.90;;;;;;5013903;28;20025;-81
2024/03/15 04:00:34;;;;;;;11.38;5.78;;;11.20;99.90;;;;;;5012362;28;20121;-81
2024/03/15 04:03:04;;;;;;;9.75;6.05;;;11.10;99.90;;;;;;5028615;28;20045;-82
2024/03/15 04:05:30;;;;;;;10.68;6.00;;;11.10;99.90;;;;;;5013593;28;20549;-83
2024/03/15 04:07:56;;;;;;;10.88;6.32;;;11.10;99.90;;;;;;5006372;28;20033;-81
2024/03/15 04:10:21;;;;;;;12.02;6.07;;;11.10;99.90;;;;;;5029060;28;20024;-81
2024/03/15 04:12:47;;;;;;;14.85;5.88;;;11.10;99.90;;;;;;5014004;28;20498;-83
2024/03/15 04:15:14;;;;;;;12.48;6.07;;;11.10;99.90;;;;;;5013646;28;20033;-82
2024/03/15 04:17:42;;;;;;;10.02;5.72;;;11.10;99.90;;;;;;5028861;28;20053;-81
2024/03/15 04:20:12;;;;;;;9.18;5.60;;;11.10;99.90;;;;;;5005231;28;20021;-81
2024/03/15 04:22:42;;;;;;;11.50;5.95;;;11.10;99.90;;;;;;5010914;28;20021;-81
2024/03/15 04:25:08;;;;;;;10.00;5.93;;;11.10;99.90;;;;;;5009117;28;20495;-83
2024/03/15 04:27:35;;;;;;;9.80;5.68;;;11.10;99.90;;;;;;5026137;28;20114;-82
2024/03/15 04:30:13;;;;;;;11.55;6.07;;;11.10;99.90;;;;;;5012809;28;20384;-81
2024/03/15 04:32:55;;;;;;;9.30;5.75;;;11.10;99.90;;;;;;5027522;28;20022;-82
2024/03/15 04:35:22;;;;;;;14.90;6.78;;;11.10;99.90;;;;;;5029194;28;20024;-83
2024/03/15 04:37:48;;;;;;;12.65;6.28;;;11.10;99.90;;;;;;5012573;28;20014;-81
2024/03/15 04:40:14;;;;;;;9.88;6.43;;;11.10;99.90;;;;;;5030877;28;20027;-83
2024/03/15 04:42:40;;;;;;;9.82;6.13;;;11.10;99.90;;;;;;5030388;28;20148;-81
2024/03/15 04:45:09;;;;;;;12.70;6.55;;;11.10;99.90;;;;;;5013458;28;20112;-82
2024/03/15 04:47:41;;;;;;;13.50;7.18;;;11.10;99.90;;;;;;5027938;28;20021;-82
2024/03/15 04:50:09;;;;;;;14.45;6.63;;;11.10;99.90;;;;;;5029722;28;20394;-81
2024/03/15 04:52:36;;;;;;;12.00;7.10;;;11.10;99.90;;;;;;5029990;28;20025;-82
2024/03/15 04:55:02;;;;;;;10.73;6.47;;;11.10;99.90;;;;;;5030946;28;20102;-83
2024/03/15 04:57:29;;;;;;;11.05;6.32;;;11.10;99.90;;;;;;5011163;28;20053;-82
2024/03/15 04:59:55;;;;;;;13.15;6.53;;;11.10;99.90;;;;;;5027577;28;20033;-81
2024/03/15 05:02:21;;;;;;;14.20;6.80;;;11.10;99.90;;;;;;5011836;28;20105;-82
2024/03/15 05:04:47;;;;;;;18.38;6.65;;;11.10;99.90;;;;;;5028936;28;20022;-82
2024/03/15 05:07:12;;;;;;;9.45;5.93;;;11.10;99.90;;;;;;5012514;28;20503;-81
2024/03/15 05:09:38;;;;;;;12.77;6.65;;;11.10;99.90;;;;;;5029826;28;20021;-82
2024/03/15 05:12:04;;;;;;;13.45;6.70;;;11.10;99.90;;;;;;5009619;28;20037;-82
2024/03/15 05:14:30;;;;;;;14.80;6.95;;;11.10;99.90;;;;;;5028157;28;20045;-83
2024/03/15 05:16:56;;;;;;;15.25;6.90;;;11.10;99.90;;;;;;5009171;28;20021;-82
2024/03/15 05:19:23;;;;;;;11.00;6.03;;;11.10;99.90;;;;;;5028309;28;20079;-82
2024/03/15 05:21:49;;;;;;;12.13;6.85;;;11.00;99.90;;;;;;5007499;28;20023;-82
2024/03/15 05:24:15;;;;;;;12.13;6.82;;;11.00;99.90;;;;;;5012790;28;20049;-83
2024/03/15 05:26:42;;;;;;;13.05;6.22;;;11.10;99.90;;;;;;5012156;28;20537;-82
2024/03/15 05:29:08;;;;;;;11.60;6.50;;;11.10;99.90;;;;;;5005798;28;20056;-82
2024/03/15 05:31:33;;;;;;;12.82;7.05;;;11.10;99.90;;;;;;5012207;28;20057;-82
2024/03/15 05:33:59;;;;;;;16.67;6.68;;;11.10;99.90;;;;;;5012420;28;20029;-82
2024/03/15 05:36:26;;;;;;;14.10;7.13;;;11.10;99.90;;;;;;5026676;28;20470;-82
2024/03/15 05:38:52;;;;;;;9.95;6.38;;;11.10;99.90;;;;;;5027494;28;20025;-83
2024/03/15 05:41:18;;;;;;;13.07;6.60;;;11.10;99.90;;;;;;5012502;28;20395;-82
2024/03/15 05:43:44;;;;;;;13.57;6.90;;;11.10;99.90;;;;;;5028526;28;20025;-81
2024/03/15 05:46:11;;;;;;;18.63;6.22;;;11.10;99.90;;;;;;5023206;28;20055;-81
2024/03/15 05:48:37;;;;;;;15.73;6.18;;;11.10;99.90;;;;;;5009429;28;20017;-81
2024/03/15 05:51:03;;;;;;;11.20;6.45;;;11.10;99.90;;;;;;5007342;28;20698;-82
2024/03/15 05:53:29;;;;;;;17.00;7.00;;;11.10;99.90;;;;;;5011235;28;20155;-82
2024/03/15 05:55:55;;;;;;;12.57;7.00;;;11.10;99.90;;;;;;5010119;28;20029;-82
2024/03/15 05:58:21;;;;;;;9.98;6.15;;;11.10;99.90;;;;;;5010159;28;20779;-83
2024/03/15 06:00:47;;;;;;;15.75;7.55;;;11.10;99.90;;;;;;5028512;28;20390;-82
2024/03/15 06:03:15;;;;;;;16.75;6.72;;;11.10;99.90;;;;;;5012022;28;20024;-82
2024/03/15 06:05:40;;;;;;;16.30;7.18;;;11.10;99.90;;;;;;5029410;28;20025;-82
2024/03/15 06:08:06;;;;;;;11.23;7.20;;;11.10;99.90;;;;;;5001648;28;20034;-83
2024/03/15 06:10:32;;;;;;;16.33;6.97;;;11.10;99.90;;;;;;5029458;28;20025;-81
2024/03/15 06:12:59;;;;;;;10.85;6.80;;;11.10;99.90;;;;;;5029345;28;20036;-81
2024/03/15 06:15:24;;;;;;;11.70;7.00;;;11.10;99.90;;;;;;5004948;28;20480;-81
2024/03/15 06:17:50;;;;;;;13.48;6.93;;;11.10;99.90;;;;;;5029343;28;20026;-82
2024/03/15 06:20:16;;;;;;;11.23;7.03;;;11.10;99.90;;;;;;5011857;28;20108;-83
2024/03/15 06:22:41;;;;;;;12.65;6.53;;;11.10;99.90;;;;;;5022765;28;20049;-83
2024/03/15 06:25:07;;;;;;;14.15;7.22;;;11.10;99.90;;;;;;5007504;28;20032;-81
2024/03/15 06:27:32;;;;;;;14.75;7.53;;;11.20;99.90;;;;;;5028003;28;20021;-82
2024/03/15 06:29:58;;;;;;;12.77;7.00;;;11.10;99.90;;;;;;5010822;28;20021;-82
2024/03/15 06:32:27;;;;;;;16.08;7.22;;;11.10;99.90;;;;;;5011325;28;20483;-81
2024/03/15 06:35:00;;;;;;;14.13;7.47;;;11.10;99.90;;;;;;5009193;28;20021;-82
2024/03/15 06:37:27;;;;;;;15.95;6.85;;;11.20;99.90;;;;;;5008946;28;20739;-83
2024/03/15 06:42:34;;;;;;;15.23;7.18;;;11.10;99.90;;;;;;5029346;28;20029;-81
2024/03/15 06:45:07;;;;;;;16.08;8.68;;;11.10;99.90;;;;;;5011297;28;20021;-83
2024/03/15 06:47:33;;;;;;;14.18;7.93;;;11.10;99.90;;;;;;5008977;28;20072;-84
2024/03/15 06:52:41;;;;;;;17.02;8.57;;;11.10;99.90;;;;;;5027504;28;20061;-84
2024/03/15 06:55:10;;;;;;;12.98;7.38;;;11.10;99.90;;;;;;5007137;28;20033;-88
2024/03/15 06:57:37;;;;;;;12.02;7.43;;;11.10;99.90;;;;;;5007397;28;20078;-84
2024/03/15 07:00:09;;;;;;;14.27;7.00;;;11.10;99.90;;;;;;5011297;28;20041;-85
2024/03/15 07:02:36;;;;;;;16.27;7.85;;;11.10;99.90;;;;;;5003444;28;20550;-85
2024/03/15 07:05:03;;;;;;;15.10;8.27;;;11.20;99.90;;;;;;5011678;28;20026;-86
2024/03/15 07:07:30;;;;;;;15.60;7.97;;;11.20;99.90;;;;;;5011777;28;20021;-86
2024/03/15 07:09:56;;;;;;;16.00;7.45;;;11.20;99.90;;;;;;5028846;28;20014;-85
2024/03/15 07:12:22;;;;;;;19.05;7.90;;;11.20;99.90;;;;;;5004513;28;20041;-88
2024/03/15 07:14:49;;;;;;;12.55;7.22;;;11.30;99.90;;;;;;5029474;28;20349;-86
2024/03/15 07:17:15;;;;;;;17.52;8.18;;;11.20;99.90;;;;;;5010836;28;20021;-84
2024/03/15 07:19:40;;;;;;;15.48;8.02;;;11.30;99.90;;;;;;5027356;28;20021;-85
2024/03/15 07:22:06;;;;;;;15.80;8.13;;;11.20;99.90;;;;;;5010125;28;20479;-84
2024/03/15 07:24:33;;;;;;;14.70;7.85;;;11.30;99.90;;;;;;5014590;28;20056;-83
2024/03/15 07:26:59;;;;;;;16.20;7.93;;;11.30;99.90;;;;;;5032261;28;20025;-83
2024/03/15 07:29:24;;;;;;;13.70;7.68;;;11.30;99.90;;;;;;5032510;28;20071;-84
2024/03/15 07:31:50;;;;;;;17.15;7.47;;;11.30;99.90;;;;;;5031344;28;20056;-83
2024/03/15 07:34:16;;;;;;;11.80;6.78;;;11.30;99.90;;;;;;5014869;28;20027;-84
2024/03/15 07:36:41;;;;;;;15.18;7.57;;;11.30;99.90;;;;;;5011595;28;20035;-83
2024/03/15 07:39:07;;;;;;;14.25;7.00;;;11.30;99.90;;;;;;5014270;28;20017;-83
2024/03/15 07:41:34;;;;;;;15.13;8.05;;;11.40;99.90;;;;;;5008959;28;20029;-83
2024/03/15 07:44:00;;;;;;;14.85;7.32;;;11.40;99.90;;;;;;5029828;28;20101;-84
2024/03/15 07:46:26;;;;;;;15.43;7.22;;;11.40;99.90;;;;;;5014286;28;20018;-84
2024/03/15 07:48:52;;;;;;;16.15;7.72;;;11.50;99.90;;;;;;5037135;28;20418;-85
2024/03/15 07:51:18;;;;;;;16.10;7.88;;;11.50;99.90;;;;;;5014441;28;20064;-84
2024/03/15 07:53:45;;;;;;;16.65;7.82;;;11.60;99.90;;;;;;5014290;28;20423;-84
2024/03/15 07:56:11;;;;;;;13.35;6.85;;;11.60;99.90;;;;;;5027164;28;20096;-84
2024/03/15 07:58:37;;;;;;;11.98;6.53;;;11.70;99.90;;;;;;5005441;28;20498;-84
2024/03/15 08:01:08;;;;;;;12.02;6.93;;;11.70;99.90;;;;;;5012787;28;20760;-85
2024/03/15 08:03:37;;;;;;;13.55;7.47;;;11.70;99.90;;;;;;5030445;28;20024;-83
2024/03/15 08:06:05;;;;;;;12.75;7.28;;;11.70;99.90;;;;;;5025662;28;20109;-85
2024/03/15 08:08:34;;;;;;;14.75;7.65;;;11.70;99.90;;;;;;5012115;28;20763;-86
2024/03/15 08:11:00;;;;;;;15.38;8.20;;;11.70;99.90;;;;;;5012150;28;20414;-87
2024/03/15 08:13:27;;;;;;;14.48;7.32;;;11.70;99.90;;;;;;5029779;28;20064;-84
2024/03/15 08:15:59;;;;;;;19.27;7.97;;;11.70;99.90;;;;;;5010792;28;20017;-84
2024/03/15 08:18:27;;;;;;;13.70;7.45;;;11.80;99.90;;;;;;5028151;28;20021;-85
2024/03/15 08:20:53;;;;;;;17.35;7.05;;;11.90;99.90;;;;;;5006244;28;20017;-84
2024/03/15 08:23:18;;;;;;;16.33;7.25;;;12.10;99.90;;;;;;5013433;28;20483;-85
2024/03/15 08:25:44;;;;;;;12.07;7.97;;;12.20;99.90;;;;;;5012264;28;20021;-84
2024/03/15 08:28:13;;;;;;;12.35;7.10;;;12.30;99.90;;;;;;5013437;28;20029;-86
2024/03/15 08:30:39;;;;;;;16.05;8.13;;;12.50;99.90;;;;;;5008609;28;20033;-83
2024/03/15 08:33:06;;;;;;;11.98;6.72;;;12.60;99.90;;;;;;5013215;28;20025;-85
2024/03/15 08:35:32;;;;;;;12.00;6.45;;;12.60;99.90;;;;;;5011109;28;20025;-85
2024/03/15 08:38:01;;;;;;;12.27;6.45;;;12.70;99.90;;;;;;5004119;28;20515;-85
2024/03/15 08:40:27;;;;;;;12.65;7.35;;;12.80;99.90;;;;;;5007739;28;20018;-84
2024/03/15 08:42:53;;;;;;;9.85;5.93;;;12.90;99.90;;;;;;5006445;28;20029;-86
2024/03/15 08:45:21;;;;;;;12.57;6.45;;;13.10;99.90;;;;;;5020535;28;20033;-85
2024/03/15 08:47:46;;;;;;;13.65;6.70;;;13.20;99.90;;;;;;5005610;28;20049;-86
2024/03/15 08:50:13;;;;;;;12.85;6.70;;;13.40;99.90;;;;;;5027999;28;20061;-85
2024/03/15 08:52:42;;;;;;;10.75;6.10;;;13.50;99.90;;;;;;5004519;28;20028;-85
2024/03/15 08:55:09;;;;;;;12.55;6.28;;;13.60;99.90;;;;;;5005195;28;20030;-84
2024/03/15 08:57:36;;;;;;;13.93;6.68;;;13.80;99.90;;;;;;5008370;28;20030;-84
2024/03/15 09:00:06;;;;;;;13.85;6.72;;;13.80;99.90;;;;;;5029855;28;20023;-85
2024/03/15 09:02:31;;;;;;;12.50;6.30;;;13.90;99.90;;;;;;5029754;28;20029;-86
2024/03/15 09:04:57;;;;;;;12.93;6.97;;;14.00;99.90;;;;;;5011440;28;20022;-86
2024/03/15 09:07:24;;;;;;;22.92;7.43;;;14.00;99.90;;;;;;5012553;28;20033;-84
2024/03/15 09:09:50;;;;;;;12.68;6.32;;;14.10;99.90;;;;;;5011986;28;20447;-85
2024/03/15 09:12:16;;;;;;;12.82;6.20;;;14.20;99.90;;;;;;5011766;28;20530;-84
2024/03/15 09:14:43;;;;;;;16.42;6.45;;;14.30;99.90;;;;;;5004480;28;20032;-84
2024/03/15 09:17:12;;;;;;;13.32;6.47;;;14.40;99.90;;;;;;5006657;28;20610;-85
2024/03/15 09:19:38;;;;;;;14.68;7.07;;;14.40;99.90;;;;;;5009756;28;20052;-85
2024/03/15 09:22:03;;;;;;;13.50;6.72;;;14.50;99.90;;;;;;5008071;28;20021;-86
2024/03/15 09:24:31;;;;;;;17.27;7.78;;;14.60;99.90;;;;;;5030020;28;20487;-85
2024/03/15 09:26:57;;;;;;;15.23;7.50;;;14.70;99.90;;;;;;5029792;28;20021;-85
2024/03/15 09:29:23;;;;;;;10.00;5.68;;;14.70;99.90;;;;;;5010978;28;20037;-85
2024/03/15 09:31:51;;;;;;;10.82;6.15;;;14.80;99.90;;;;;;5011595;28;20025;-84
2024/03/15 09:34:17;;;;;;;12.35;6.70;;;14.90;99.90;;;;;;5028835;28;20021;-83
2024/03/15 09:36:43;;;;;;;13.40;6.38;;;15.00;99.90;;;;;;5009521;28;20059;-83
2024/03/15 09:39:14;;;;;;;12.05;6.20;;;15.00;99.90;;;;;;5017761;28;20045;-85
2024/03/15 09:41:41;;;;;;;10.32;6.40;;;15.10;99.90;;;;;;5027400;28;20028;-85
2024/03/15 09:44:14;;;;;;;12.07;7.15;;;15.20;99.90;;;;;;5027438;28;20022;-85
2024/03/15 09:46:41;;;;;;;11.68;5.80;;;15.20;99.90;;;;;;5025868;28;20021;-85
2024/03/15 09:49:12;;;;;;;13.95;6.03;;;15.30;99.90;;;;;;5031539;28;20045;-83
2024/03/15 09:51:40;;;;;;;10.80;5.78;;;15.10;99.90;;;;;;5009728;28;20026;-83
2024/03/15 09:54:08;;;;;;;11.02;4.97;;;14.50;99.90;;;;;;5003394;28;20072;-85
2024/03/15 09:56:37;;;;;;;7.90;5.28;;;14.30;99.90;;;;;;5006247;28;20108;-85
2024/03/15 09:59:04;;;;;;;11.30;5.47;;;14.20;99.90;;;;;;5007924;28;20029;-86
2024/03/15 10:01:32;;;;;;;11.05;4.85;;;14.20;99.90;;;;;;5020772;28;20025;-83
2024/03/15 10:03:57;;;;;;;7.28;4.53;;;14.20;99.90;;;;;;5026249;28;20057;-84
2024/03/15 10:06:23;;;;;;;6.50;4.00;;;14.20;99.90;;;;;;5005887;28;20029;-84
2024/03/15 10:08:49;;;;;;;5.28;3.80;;;14.20;99.90;;;;;;5003951;28;20076;-85
2024/03/15 10:11:15;;;;;;;9.45;3.67;;;14.30;99.90;;;;;;5021180;28;20553;-84
2024/03/15 10:13:41;;;;;;;6.72;3.40;;;14.30;99.90;;;;;;5007753;28;20529;-84
2024/03/15 10:16:08;;;;;;;15.35;3.70;;;14.20;99.90;;;;;;5025945;28;20032;-83
2024/03/15 10:18:38;;;;;;;10.40;4.13;;;14.20;99.90;;;;;;5022173;28;20398;-85
2024/03/15 10:21:07;;;;;;;7.15;3.50;;;14.30;99.90;;;;;;5022646;28;20018;-86
2024/03/15 10:23:32;;;;;;;8.32;4.70;;;14.20;99.90;;;;;;5026470;28;20022;-86
2024/03/15 10:25:58;;;;;;;6.93;3.47;;;14.20;99.90;;;;;;5005443;28;20040;-84
2024/03/15 10:28:24;;;;;;;6.22;3.10;;;14.40;99.90;;;;;;5008584;28;20027;-84
2024/03/15 10:30:49;;;;;;;7.60;3.85;;;14.60;99.90;;;;;;5023717;28;20014;-88
2024/03/15 10:33:16;;;;;;;5.82;3.20;;;14.60;99.90;;;;;;5025038;28;20033;-86
2024/03/15 10:35:42;;;;;;;11.85;3.50;;;14.60;99.90;;;;;;5007801;28;20032;-88
2024/03/15 10:38:14;;;;;;;4.85;3.05;;;14.70;99.90;;;;;;5010170;28;20052;-84
2024/03/15 10:40:40;;;;;;;5.00;2.67;;;14.60;99.90;;;;;;5022399;28;20045;-85
2024/03/15 10:43:10;;;;;;;5.50;2.90;;;14.70;99.90;;;;;;5028781;28;20026;-88
2024/03/15 10:45:36;;;;;;;7.28;3.10;;;14.80;99.90;;;;;;5029791;28;20026;-86
2024/03/15 10:48:07;;;;;;;7.80;3.47;;;15.00;99.90;;;;;;5029385;28;20037;-86
2024/03/15 10:50:35;;;;;;;6.80;3.70;;;15.00;99.90;;;;;;5006633;28;20025;-86
2024/03/15 10:53:05;;;;;;;3.83;2.30;;;15.00;99.90;;;;;;5027409;28;20017;-85
2024/03/15 10:55:30;;;;;;;5.40;2.70;;;15.00;99.90;;;;;;5011540;28;20018;-87
2024/03/15 10:58:05;;;;;;;4.97;2.60;;;15.20;99.90;;;;;;5015040;28;20482;-86
2024/03/15 11:00:32;;;;;;;4.57;2.30;;;15.20;99.90;;;;;;5013239;28;20033;-86
2024/03/15 11:03:11;;;;;;;8.98;2.65;;;15.20;99.90;;;;;;5015137;28;20029;-87
2024/03/15 11:05:37;;;;;;;6.45;3.17;;;15.10;99.90;;;;;;5033167;28;20072;-84
2024/03/15 11:08:09;;;;;;;8.18;2.80;;;15.20;99.90;;;;;;5013519;28;20025;-87
2024/03/15 11:10:38;;;;;;;5.90;2.40;;;15.40;99.90;;;;;;5014801;28;20017;-86
2024/03/15 11:13:07;;;;;;;5.05;2.30;;;15.50;99.90;;;;;;5012857;28;20029;-88
2024/03/15 11:15:34;;;;;;;5.95;2.25;;;15.40;99.90;;;;;;5028952;28;20057;-86
2024/03/15 11:18:03;;;;;;;8.23;2.22;;;15.30;99.90;;;;;;5014926;28;20025;-85
2024/03/15 11:20:55;;;;;;;5.23;2.23;;;15.50;99.90;;;;;;5005483;28;20017;-86
2024/03/15 11:23:26;;;;;;;4.18;2.58;;;15.40;99.90;;;;;;5012480;28;20075;-85
2024/03/15 11:26:09;;;;;;;10.32;2.40;;;15.50;99.90;;;;;;5014548;28;20018;-85
2024/03/15 11:28:37;;;;;;;3.83;2.05;;;15.20;99.90;;;;;;5028444;28;20029;-87
2024/03/15 11:31:03;;;;;;;6.97;2.60;;;15.00;99.90;;;;;;5011400;28;20030;-85
2024/03/15 11:33:33;;;;;;;4.28;2.30;;;14.60;99.90;;;;;;5015033;28;20025;-87
2024/03/15 11:35:59;;;;;;;4.13;2.08;;;14.50;99.90;;;;;;5011665;28;20056;-86
2024/03/15 11:38:27;;;;;;;4.90;2.20;;;14.70;99.90;;;;;;5011494;28;20076;-85
2024/03/15 11:40:58;;;;;;;4.72;2.10;;;14.80;99.90;;;;;;5031566;28;20022;-86
2024/03/15 11:43:25;;;;;;;3.85;2.15;;;15.00;99.90;;;;;;5011636;28;20040;-84
2024/03/15 11:45:51;;;;;;;5.47;2.00;;;15.20;99.90;;;;;;5010824;28;20044;-87
2024/03/15 11:48:19;;;;;;;9.23;2.58;;;15.20;99.90;;;;;;5013936;28;20025;-85
2024/03/15 11:50:49;;;;;;;4.88;2.28;;;15.10;99.90;;;;;;5007775;28;20056;-87
2024/03/15 11:53:19;;;;;;;6.95;2.28;;;15.10;99.90;;;;;;5011653;28;20065;-85
2024/03/15 11:55:46;;;;;;;3.55;2.20;;;14.80;99.90;;;;;;5026800;28;20025;-84
2024/03/15 11:58:17;;;;;;;4.60;2.05;;;14.60;99.90;;;;;;5010241;28;20407;-86
2024/03/15 12:00:54;;;;;;;3.30;1.98;;;14.50;99.90;;;;;;5009485;28;20025;-88
2024/03/15 12:03:31;;;;;;;3.50;2.05;;;14.40;99.90;;;;;;5012903;28;20022;-84
2024/03/15 12:06:00;;;;;;;6.68;2.78;;;14.40;99.90;;;;;;5009577;28;20021;-87
2024/03/15 12:08:25;;;;;;;6.00;2.78;;;14.60;99.90;;;;;;5014226;28;20053;-87
2024/03/15 12:10:52;;;;;;;4.25;2.33;;;14.90;99.90;;;;;;5014370;28;20458;-85
2024/03/15 12:13:26;;;;;;;3.72;2.17;;;15.10;99.90;;;;;;5031769;28;20109;-86
2024/03/15 12:15:52;;;;;;;4.00;1.83;;;15.00;99.90;;;;;;5011906;28;20071;-86
2024/03/15 12:18:26;;;;;;;2.72;2.13;;;14.80;99.90;;;;;;5030106;28;20380;-86
2024/03/15 12:20:52;;;;;;;6.63;2.03;;;14.70;99.90;;;;;;5014552;28;20056;-87
2024/03/15 12:23:20;;;;;;;3.72;2.05;;;14.50;99.90;;;;;;5028719;28;20238;-85
2024/03/15 12:25:46;;;;;;;2.78;1.73;;;14.40;99.90;;;;;;5010161;28;20017;-84
2024/03/15 12:28:13;;;;;;;2.92;2.00;;;14.40;99.90;;;;;;5031444;28;20067;-87
2024/03/15 12:30:46;;;;;;;5.10;2.42;;;14.40;99.90;;;;;;5030008;28;20104;-87
2024/03/15 12:33:13;;;;;;;3.42;2.17;;;14.40;99.90;;;;;;5009713;28;20025;-84
2024/03/15 12:35:39;;;;;;;3.10;2.05;;;14.30;99.90;;;;;;5028363;28;20025;-87
2024/03/15 12:38:08;;;;;;;4.18;2.40;;;14.20;99.90;;;;;;5028453;28;20036;-88
2024/03/15 12:40:34;;;;;;;8.05;2.47;;;14.20;99.90;;;;;;5011950;28;20120;-87
2024/03/15 12:43:00;;;;;;;5.40;2.65;;;14.10;99.90;;;;;;5030341;28;20017;-87
2024/03/15 12:45:25;;;;;;;5.93;1.90;;;14.20;99.90;;;;;;5025729;28;20045;-85